sensor_id;sensor_type;location;lat;lon;timestamp;pressure;altitude;pressure_sealevel;temperature;humidity
6395;BME280;3230;42.588;23.358;2023-07-31T00:01:05;90861.19;;;19.00;nan
6395;BME280;3230;42.588;23.358;2023-07-31T00:03:30;90867.28;;;19.13;nan
6395;BME280;3230;42.588;23.358;2023-07-31T00:05:56;90868.09;;;19.26;nan
6395;BME280;3230;42.588;23.358;2023-07-31T00:08:21;90859.53;;;19.20;nan
6395;BME280;3230;42.588;23.358;2023-07-31T00:10:47;90863.28;;;19.07;nan
6395;BME280;3230;42.588;23.358;2023-07-31T00:13:12;90855.88;;;19.00;nan
6395;BME280;3230;42.588;23.358;2023-07-31T00:15:38;90852.31;;;18.96;nan
6395;BME280;3230;42.588;23.358;2023-07-31T00:18:03;90853.13;;;19.09;nan
6395;BME280;3230;42.588;23.358;2023-07-31T00:20:28;90846.38;;;19.11;nan
6395;BME280;3230;42.588;23.358;2023-07-31T00:22:54;90852.75;;;18.98;nan
6395;BME280;3230;42.588;23.358;2023-07-31T00:25:19;90840.59;;;18.97;nan
6395;BME280;3230;42.588;23.358;2023-07-31T00:27:45;90843.56;;;18.95;nan
6395;BME280;3230;42.588;23.358;2023-07-31T00:30:11;90841.28;;;19.06;nan
6395;BME280;3230;42.588;23.358;2023-07-31T00:32:37;90841.56;;;18.92;nan
6395;BME280;3230;42.588;23.358;2023-07-31T00:35:02;90828.59;;;18.78;nan
6395;BME280;3230;42.588;23.358;2023-07-31T00:37:28;90827.25;;;18.84;nan
6395;BME280;3230;42.588;23.358;2023-07-31T00:39:53;90832.56;;;18.84;nan
6395;BME280;3230;42.588;23.358;2023-07-31T00:42:19;90821.97;;;18.84;nan
6395;BME280;3230;42.588;23.358;2023-07-31T00:44:44;90807.88;;;18.72;nan
6395;BME280;3230;42.588;23.358;2023-07-31T00:47:10;90814.84;;;18.76;nan
6395;BME280;3230;42.588;23.358;2023-07-31T00:49:35;90807.22;;;18.75;nan
6395;BME280;3230;42.588;23.358;2023-07-31T00:52:01;90806.69;;;18.81;nan
6395;BME280;3230;42.588;23.358;2023-07-31T00:54:27;90811.56;;;18.79;nan
6395;BME280;3230;42.588;23.358;2023-07-31T00:56:54;90822.53;;;18.90;nan
6395;BME280;3230;42.588;23.358;2023-07-31T00:59:19;90822.00;;;18.97;nan
6395;BME280;3230;42.588;23.358;2023-07-31T01:01:45;90819.47;;;18.67;nan
6395;BME280;3230;42.588;23.358;2023-07-31T01:04:12;90813.28;;;18.63;nan
6395;BME280;3230;42.588;23.358;2023-07-31T01:06:49;90815.81;;;18.59;nan
6395;BME280;3230;42.588;23.358;2023-07-31T01:09:42;90814.34;;;18.49;nan
6395;BME280;3230;42.588;23.358;2023-07-31T01:12:14;90806.94;;;18.43;nan
6395;BME280;3230;42.588;23.358;2023-07-31T01:14:39;90811.66;;;18.37;nan
6395;BME280;3230;42.588;23.358;2023-07-31T01:17:05;90801.66;;;18.21;nan
6395;BME280;3230;42.588;23.358;2023-07-31T01:19:30;90807.16;;;18.16;nan
6395;BME280;3230;42.588;23.358;2023-07-31T01:25:33;90793.63;;;18.09;nan
6395;BME280;3230;42.588;23.358;2023-07-31T01:28:07;90799.19;;;18.16;nan
6395;BME280;3230;42.588;23.358;2023-07-31T01:30:38;90794.53;;;18.13;nan
6395;BME280;3230;42.588;23.358;2023-07-31T01:33:07;90790.53;;;17.86;nan
6395;BME280;3230;42.588;23.358;2023-07-31T01:35:34;90784.88;;;17.87;nan
6395;BME280;3230;42.588;23.358;2023-07-31T01:38:00;90789.41;;;17.66;nan
6395;BME280;3230;42.588;23.358;2023-07-31T01:40:25;90785.13;;;17.52;nan
6395;BME280;3230;42.588;23.358;2023-07-31T01:42:50;90781.72;;;17.52;nan
6395;BME280;3230;42.588;23.358;2023-07-31T01:45:16;90781.31;;;17.62;nan
6395;BME280;3230;42.588;23.358;2023-07-31T01:47:41;90786.00;;;17.65;nan
6395;BME280;3230;42.588;23.358;2023-07-31T01:50:07;90789.84;;;17.47;nan
6395;BME280;3230;42.588;23.358;2023-07-31T01:52:32;90785.31;;;17.47;nan
6395;BME280;3230;42.588;23.358;2023-07-31T01:54:58;90786.81;;;17.57;nan
6395;BME280;3230;42.588;23.358;2023-07-31T01:57:23;90790.81;;;17.42;nan
6395;BME280;3230;42.588;23.358;2023-07-31T01:59:49;90793.00;;;17.40;nan
6395;BME280;3230;42.588;23.358;2023-07-31T02:02:14;90799.78;;;17.29;nan
6395;BME280;3230;42.588;23.358;2023-07-31T02:04:39;90799.97;;;17.15;nan
6395;BME280;3230;42.588;23.358;2023-07-31T02:07:06;90799.16;;;17.23;nan
6395;BME280;3230;42.588;23.358;2023-07-31T02:09:31;90802.94;;;17.13;nan
6395;BME280;3230;42.588;23.358;2023-07-31T02:11:56;90797.59;;;17.22;nan
6395;BME280;3230;42.588;23.358;2023-07-31T02:14:22;90805.41;;;17.18;nan
6395;BME280;3230;42.588;23.358;2023-07-31T02:16:47;90806.81;;;17.16;nan
6395;BME280;3230;42.588;23.358;2023-07-31T02:19:13;90803.00;;;17.04;nan
6395;BME280;3230;42.588;23.358;2023-07-31T02:21:38;90812.31;;;17.10;nan
6395;BME280;3230;42.588;23.358;2023-07-31T02:24:04;90823.31;;;17.21;nan
6395;BME280;3230;42.588;23.358;2023-07-31T02:26:29;90821.56;;;17.34;nan
6395;BME280;3230;42.588;23.358;2023-07-31T02:28:55;90824.22;;;17.25;nan
6395;BME280;3230;42.588;23.358;2023-07-31T02:31:20;90819.06;;;17.29;nan
6395;BME280;3230;42.588;23.358;2023-07-31T02:33:45;90815.97;;;17.27;nan
6395;BME280;3230;42.588;23.358;2023-07-31T02:36:11;90812.63;;;17.39;nan
6395;BME280;3230;42.588;23.358;2023-07-31T02:38:36;90815.00;;;17.32;nan
6395;BME280;3230;42.588;23.358;2023-07-31T02:41:02;90810.63;;;17.36;nan
6395;BME280;3230;42.588;23.358;2023-07-31T02:43:27;90813.50;;;17.22;nan
6395;BME280;3230;42.588;23.358;2023-07-31T02:45:53;90813.78;;;17.29;nan
6395;BME280;3230;42.588;23.358;2023-07-31T02:48:18;90807.56;;;17.25;nan
6395;BME280;3230;42.588;23.358;2023-07-31T02:50:45;90805.97;;;17.33;nan
6395;BME280;3230;42.588;23.358;2023-07-31T02:53:10;90807.56;;;17.25;nan
6395;BME280;3230;42.588;23.358;2023-07-31T02:55:35;90812.09;;;17.24;nan
6395;BME280;3230;42.588;23.358;2023-07-31T02:58:01;90819.25;;;17.24;nan
6395;BME280;3230;42.588;23.358;2023-07-31T03:00:27;90817.97;;;17.30;nan
6395;BME280;3230;42.588;23.358;2023-07-31T03:02:53;90820.94;;;17.29;nan
6395;BME280;3230;42.588;23.358;2023-07-31T03:05:18;90818.94;;;17.25;nan
6395;BME280;3230;42.588;23.358;2023-07-31T03:07:43;90818.78;;;17.31;nan
6395;BME280;3230;42.588;23.358;2023-07-31T03:10:09;90819.28;;;17.45;nan
6395;BME280;3230;42.588;23.358;2023-07-31T03:12:34;90824.22;;;17.55;nan
6395;BME280;3230;42.588;23.358;2023-07-31T03:15:00;90823.56;;;17.58;nan
6395;BME280;3230;42.588;23.358;2023-07-31T03:17:25;90826.06;;;17.64;nan
6395;BME280;3230;42.588;23.358;2023-07-31T03:19:50;90828.00;;;17.75;nan
6395;BME280;3230;42.588;23.358;2023-07-31T03:22:16;90831.25;;;17.81;nan
6395;BME280;3230;42.588;23.358;2023-07-31T03:24:41;90823.56;;;17.88;nan
6395;BME280;3230;42.588;23.358;2023-07-31T03:27:07;90836.47;;;17.99;nan
6395;BME280;3230;42.588;23.358;2023-07-31T03:29:32;90833.88;;;18.11;nan
6395;BME280;3230;42.588;23.358;2023-07-31T03:31:57;90823.69;;;18.13;nan
6395;BME280;3230;42.588;23.358;2023-07-31T03:34:24;90823.44;;;18.06;nan
6395;BME280;3230;42.588;23.358;2023-07-31T03:36:49;90837.34;;;18.03;nan
6395;BME280;3230;42.588;23.358;2023-07-31T03:39:15;90836.69;;;18.06;nan
6395;BME280;3230;42.588;23.358;2023-07-31T03:41:40;90840.84;;;18.16;nan
6395;BME280;3230;42.588;23.358;2023-07-31T03:44:05;90845.09;;;18.08;nan
6395;BME280;3230;42.588;23.358;2023-07-31T03:46:31;90844.91;;;18.13;nan
6395;BME280;3230;42.588;23.358;2023-07-31T03:48:56;90838.91;;;18.04;nan
6395;BME280;3230;42.588;23.358;2023-07-31T03:51:22;90849.78;;;18.11;nan
6395;BME280;3230;42.588;23.358;2023-07-31T03:53:47;90842.00;;;18.06;nan
6395;BME280;3230;42.588;23.358;2023-07-31T03:56:13;90849.25;;;18.18;nan
6395;BME280;3230;42.588;23.358;2023-07-31T03:58:38;90846.47;;;18.14;nan
6395;BME280;3230;42.588;23.358;2023-07-31T04:01:04;90855.13;;;18.24;nan
6395;BME280;3230;42.588;23.358;2023-07-31T04:03:29;90861.03;;;18.29;nan
6395;BME280;3230;42.588;23.358;2023-07-31T04:05:55;90862.00;;;18.25;nan
6395;BME280;3230;42.588;23.358;2023-07-31T04:08:22;90867.09;;;18.30;nan
6395;BME280;3230;42.588;23.358;2023-07-31T04:10:47;90868.13;;;18.37;nan
6395;BME280;3230;42.588;23.358;2023-07-31T04:13:13;90873.13;;;18.39;nan
6395;BME280;3230;42.588;23.358;2023-07-31T04:15:38;90866.69;;;18.40;nan
6395;BME280;3230;42.588;23.358;2023-07-31T04:18:05;90865.09;;;18.48;nan
6395;BME280;3230;42.588;23.358;2023-07-31T04:20:31;90862.44;;;18.48;nan
6395;BME280;3230;42.588;23.358;2023-07-31T04:22:57;90872.06;;;18.52;nan
6395;BME280;3230;42.588;23.358;2023-07-31T04:25:22;90874.19;;;18.59;nan
6395;BME280;3230;42.588;23.358;2023-07-31T04:27:48;90873.00;;;18.69;nan
6395;BME280;3230;42.588;23.358;2023-07-31T04:30:13;90871.69;;;18.75;nan
6395;BME280;3230;42.588;23.358;2023-07-31T04:32:39;90877.91;;;18.79;nan
6395;BME280;3230;42.588;23.358;2023-07-31T04:35:04;90874.81;;;18.77;nan
6395;BME280;3230;42.588;23.358;2023-07-31T04:37:30;90877.31;;;18.95;nan
6395;BME280;3230;42.588;23.358;2023-07-31T04:39:56;90878.53;;;18.97;nan
6395;BME280;3230;42.588;23.358;2023-07-31T04:42:21;90869.56;;;19.02;nan
6395;BME280;3230;42.588;23.358;2023-07-31T04:44:47;90869.28;;;19.16;nan
6395;BME280;3230;42.588;23.358;2023-07-31T04:47:12;90872.06;;;19.20;nan
6395;BME280;3230;42.588;23.358;2023-07-31T04:49:37;90877.38;;;19.32;nan
6395;BME280;3230;42.588;23.358;2023-07-31T04:52:03;90875.94;;;19.34;nan
6395;BME280;3230;42.588;23.358;2023-07-31T04:54:29;90879.06;;;19.61;nan
6395;BME280;3230;42.588;23.358;2023-07-31T04:56:54;90874.63;;;19.65;nan
6395;BME280;3230;42.588;23.358;2023-07-31T04:59:20;90883.34;;;20.28;nan
6395;BME280;3230;42.588;23.358;2023-07-31T05:01:45;90879.84;;;20.40;nan
6395;BME280;3230;42.588;23.358;2023-07-31T05:04:13;90895.66;;;24.24;nan
6395;BME280;3230;42.588;23.358;2023-07-31T05:06:40;90896.06;;;26.53;nan
6395;BME280;3230;42.588;23.358;2023-07-31T05:09:05;90894.56;;;28.41;nan
6395;BME280;3230;42.588;23.358;2023-07-31T05:11:30;90874.13;;;29.58;nan
6395;BME280;3230;42.588;23.358;2023-07-31T05:13:56;90878.31;;;30.64;nan
6395;BME280;3230;42.588;23.358;2023-07-31T05:16:21;90884.03;;;31.97;nan
6395;BME280;3230;42.588;23.358;2023-07-31T05:18:47;90870.84;;;31.72;nan
6395;BME280;3230;42.588;23.358;2023-07-31T05:21:12;90877.91;;;31.00;nan
6395;BME280;3230;42.588;23.358;2023-07-31T05:23:38;90865.59;;;30.61;nan
6395;BME280;3230;42.588;23.358;2023-07-31T05:26:07;90875.09;;;31.73;nan
6395;BME280;3230;42.588;23.358;2023-07-31T05:28:36;90882.47;;;31.96;nan
6395;BME280;3230;42.588;23.358;2023-07-31T05:31:03;90883.56;;;29.91;nan
6395;BME280;3230;42.588;23.358;2023-07-31T05:33:29;90865.41;;;29.95;nan
6395;BME280;3230;42.588;23.358;2023-07-31T05:35:55;90871.16;;;30.43;nan
6395;BME280;3230;42.588;23.358;2023-07-31T05:38:20;90871.38;;;28.87;nan
6395;BME280;3230;42.588;23.358;2023-07-31T05:40:46;90863.03;;;27.98;nan
6395;BME280;3230;42.588;23.358;2023-07-31T05:43:12;90865.97;;;27.10;nan
6395;BME280;3230;42.588;23.358;2023-07-31T05:45:37;90862.75;;;26.05;nan
6395;BME280;3230;42.588;23.358;2023-07-31T05:48:03;90854.91;;;26.41;nan
6395;BME280;3230;42.588;23.358;2023-07-31T05:50:30;90856.47;;;26.42;nan
6395;BME280;3230;42.588;23.358;2023-07-31T05:52:55;90865.69;;;27.62;nan
6395;BME280;3230;42.588;23.358;2023-07-31T05:55:20;90869.88;;;28.57;nan
6395;BME280;3230;42.588;23.358;2023-07-31T05:57:46;90873.44;;;30.03;nan
6395;BME280;3230;42.588;23.358;2023-07-31T06:00:13;90876.69;;;31.08;nan
6395;BME280;3230;42.588;23.358;2023-07-31T06:02:38;90888.66;;;31.97;nan
6395;BME280;3230;42.588;23.358;2023-07-31T06:05:04;90882.59;;;32.60;nan
6395;BME280;3230;42.588;23.358;2023-07-31T06:07:31;90887.50;;;32.69;nan
6395;BME280;3230;42.588;23.358;2023-07-31T06:09:57;90880.41;;;32.04;nan
6395;BME280;3230;42.588;23.358;2023-07-31T06:12:28;90879.38;;;32.69;nan
6395;BME280;3230;42.588;23.358;2023-07-31T06:14:53;90884.53;;;33.80;nan
6395;BME280;3230;42.588;23.358;2023-07-31T06:17:18;90882.28;;;33.42;nan
6395;BME280;3230;42.588;23.358;2023-07-31T06:19:44;90888.66;;;34.05;nan
6395;BME280;3230;42.588;23.358;2023-07-31T06:22:09;90875.16;;;34.51;nan
6395;BME280;3230;42.588;23.358;2023-07-31T06:24:35;90885.69;;;34.16;nan
6395;BME280;3230;42.588;23.358;2023-07-31T06:27:00;90877.97;;;34.31;nan
6395;BME280;3230;42.588;23.358;2023-07-31T06:29:28;90889.69;;;34.28;nan
6395;BME280;3230;42.588;23.358;2023-07-31T06:31:53;90887.69;;;34.78;nan
6395;BME280;3230;42.588;23.358;2023-07-31T06:34:18;90887.56;;;34.19;nan
6395;BME280;3230;42.588;23.358;2023-07-31T06:36:44;90886.13;;;34.48;nan
6395;BME280;3230;42.588;23.358;2023-07-31T06:39:09;90878.97;;;35.00;nan
6395;BME280;3230;42.588;23.358;2023-07-31T06:41:35;90887.28;;;35.38;nan
6395;BME280;3230;42.588;23.358;2023-07-31T06:44:00;90887.63;;;35.41;nan
6395;BME280;3230;42.588;23.358;2023-07-31T06:46:26;90880.03;;;35.87;nan
6395;BME280;3230;42.588;23.358;2023-07-31T06:48:51;90883.44;;;36.04;nan
6395;BME280;3230;42.588;23.358;2023-07-31T06:51:16;90878.72;;;36.43;nan
6395;BME280;3230;42.588;23.358;2023-07-31T06:53:42;90888.53;;;35.76;nan
6395;BME280;3230;42.588;23.358;2023-07-31T06:56:10;90885.19;;;36.72;nan
6395;BME280;3230;42.588;23.358;2023-07-31T06:58:35;90883.56;;;36.00;nan
6395;BME280;3230;42.588;23.358;2023-07-31T07:01:01;90881.19;;;34.59;nan
6395;BME280;3230;42.588;23.358;2023-07-31T07:03:27;90872.78;;;32.46;nan
6395;BME280;3230;42.588;23.358;2023-07-31T07:05:52;90866.91;;;31.18;nan
6395;BME280;3230;42.588;23.358;2023-07-31T07:08:18;90865.41;;;29.88;nan
6395;BME280;3230;42.588;23.358;2023-07-31T07:10:43;90870.03;;;29.95;nan
6395;BME280;3230;42.588;23.358;2023-07-31T07:13:09;90869.66;;;29.26;nan
6395;BME280;3230;42.588;23.358;2023-07-31T07:15:35;90870.03;;;29.31;nan
6395;BME280;3230;42.588;23.358;2023-07-31T07:18:00;90866.03;;;29.54;nan
6395;BME280;3230;42.588;23.358;2023-07-31T07:20:26;90871.47;;;30.07;nan
6395;BME280;3230;42.588;23.358;2023-07-31T07:22:51;90866.69;;;30.25;nan
6395;BME280;3230;42.588;23.358;2023-07-31T07:25:16;90875.69;;;31.26;nan
6395;BME280;3230;42.588;23.358;2023-07-31T07:27:42;90880.72;;;31.55;nan
6395;BME280;3230;42.588;23.358;2023-07-31T07:30:07;90884.69;;;32.52;nan
6395;BME280;3230;42.588;23.358;2023-07-31T07:32:33;90885.50;;;32.73;nan
6395;BME280;3230;42.588;23.358;2023-07-31T07:34:59;90898.72;;;32.24;nan
6395;BME280;3230;42.588;23.358;2023-07-31T07:37:24;90895.94;;;33.55;nan
6395;BME280;3230;42.588;23.358;2023-07-31T07:39:50;90898.13;;;34.96;nan
6395;BME280;3230;42.588;23.358;2023-07-31T07:42:15;90910.22;;;35.54;nan
6395;BME280;3230;42.588;23.358;2023-07-31T07:44:41;90912.72;;;35.74;nan
6395;BME280;3230;42.588;23.358;2023-07-31T07:47:06;90913.19;;;36.50;nan
6395;BME280;3230;42.588;23.358;2023-07-31T07:49:33;90924.25;;;36.94;nan
6395;BME280;3230;42.588;23.358;2023-07-31T07:51:59;90915.84;;;37.11;nan
6395;BME280;3230;42.588;23.358;2023-07-31T07:54:25;90916.72;;;37.65;nan
6395;BME280;3230;42.588;23.358;2023-07-31T07:56:50;90920.16;;;38.10;nan
6395;BME280;3230;42.588;23.358;2023-07-31T07:59:16;90932.19;;;37.37;nan
6395;BME280;3230;42.588;23.358;2023-07-31T08:01:41;90925.63;;;36.25;nan
6395;BME280;3230;42.588;23.358;2023-07-31T08:04:07;90921.63;;;36.91;nan
6395;BME280;3230;42.588;23.358;2023-07-31T08:06:32;90924.97;;;35.95;nan
6395;BME280;3230;42.588;23.358;2023-07-31T08:08:57;90917.03;;;34.21;nan
6395;BME280;3230;42.588;23.358;2023-07-31T08:11:23;90914.03;;;35.69;nan
6395;BME280;3230;42.588;23.358;2023-07-31T08:13:49;90914.50;;;35.81;nan
6395;BME280;3230;42.588;23.358;2023-07-31T08:16:15;90915.75;;;35.21;nan
6395;BME280;3230;42.588;23.358;2023-07-31T08:18:40;90917.56;;;36.09;nan
6395;BME280;3230;42.588;23.358;2023-07-31T08:21:07;90917.47;;;36.86;nan
6395;BME280;3230;42.588;23.358;2023-07-31T08:23:33;90919.50;;;38.06;nan
6395;BME280;3230;42.588;23.358;2023-07-31T08:25:58;90921.63;;;38.02;nan
6395;BME280;3230;42.588;23.358;2023-07-31T08:28:23;90920.41;;;38.34;nan
6395;BME280;3230;42.588;23.358;2023-07-31T08:30:49;90914.72;;;38.69;nan
6395;BME280;3230;42.588;23.358;2023-07-31T08:33:15;90923.31;;;37.55;nan
6395;BME280;3230;42.588;23.358;2023-07-31T08:35:41;90912.66;;;37.79;nan
6395;BME280;3230;42.588;23.358;2023-07-31T08:38:06;90916.91;;;38.34;nan
6395;BME280;3230;42.588;23.358;2023-07-31T08:40:32;90923.94;;;37.81;nan
6395;BME280;3230;42.588;23.358;2023-07-31T08:42:58;90918.34;;;38.16;nan
6395;BME280;3230;42.588;23.358;2023-07-31T08:45:27;90921.78;;;36.61;nan
6395;BME280;3230;42.588;23.358;2023-07-31T08:47:55;90927.25;;;36.61;nan
6395;BME280;3230;42.588;23.358;2023-07-31T08:50:21;90928.56;;;36.31;nan
6395;BME280;3230;42.588;23.358;2023-07-31T08:52:48;90920.41;;;35.92;nan
6395;BME280;3230;42.588;23.358;2023-07-31T08:55:14;90917.41;;;35.31;nan
6395;BME280;3230;42.588;23.358;2023-07-31T08:58:41;90929.09;;;35.87;29.25
6395;BME280;3230;42.588;23.358;2023-07-31T09:01:07;90928.59;;;35.92;29.49
6395;BME280;3230;42.588;23.358;2023-07-31T09:03:34;90927.47;;;36.02;29.00
6395;BME280;3230;42.588;23.358;2023-07-31T09:06:02;90911.94;;;35.61;30.00
6395;BME280;3230;42.588;23.358;2023-07-31T09:08:30;90921.59;;;35.91;29.97
6395;BME280;3230;42.588;23.358;2023-07-31T09:10:59;90929.75;;;35.36;31.02
6395;BME280;3230;42.588;23.358;2023-07-31T09:13:27;90918.59;;;33.48;32.30
6395;BME280;3230;42.588;23.358;2023-07-31T09:15:53;90911.31;;;31.83;34.68
6395;BME280;3230;42.588;23.358;2023-07-31T09:18:19;90907.84;;;30.44;37.90
6395;BME280;3230;42.588;23.358;2023-07-31T09:21:01;90905.03;;;30.06;38.58
6395;BME280;3230;42.588;23.358;2023-07-31T09:23:43;90896.75;;;28.97;40.08
6395;BME280;3230;42.588;23.358;2023-07-31T09:26:09;90889.06;;;28.92;41.39
6395;BME280;3230;42.588;23.358;2023-07-31T09:28:35;90892.28;;;28.14;43.14
6395;BME280;3230;42.588;23.358;2023-07-31T09:31:00;90895.69;;;27.64;43.89
6395;BME280;3230;42.588;23.358;2023-07-31T09:33:26;90896.78;;;27.31;43.25
6395;BME280;3230;42.588;23.358;2023-07-31T09:35:51;90892.00;;;26.84;44.69
6395;BME280;3230;42.588;23.358;2023-07-31T09:38:17;90882.66;;;26.63;46.29
6395;BME280;3230;42.588;23.358;2023-07-31T09:40:44;90886.00;;;26.42;46.07
6395;BME280;3230;42.588;23.358;2023-07-31T09:43:12;90895.63;;;26.47;46.92
6395;BME280;3230;42.588;23.358;2023-07-31T09:45:39;90884.31;;;26.83;47.50
6395;BME280;3230;42.588;23.358;2023-07-31T09:48:16;90883.94;;;26.91;47.06
6395;BME280;3230;42.588;23.358;2023-07-31T09:50:43;90880.94;;;27.04;45.40
6395;BME280;3230;42.588;23.358;2023-07-31T09:53:09;90877.03;;;26.87;46.85
6395;BME280;3230;42.588;23.358;2023-07-31T09:55:36;90874.44;;;27.16;46.86
6395;BME280;3230;42.588;23.358;2023-07-31T09:58:04;90882.16;;;27.35;45.05
6395;BME280;3230;42.588;23.358;2023-07-31T10:00:30;90877.47;;;27.00;45.21
6395;BME280;3230;42.588;23.358;2023-07-31T10:02:59;90871.78;;;26.34;46.40
6395;BME280;3230;42.588;23.358;2023-07-31T10:05:31;90881.00;;;26.41;45.88
6395;BME280;3230;42.588;23.358;2023-07-31T10:07:59;90886.41;;;26.44;46.53
6395;BME280;3230;42.588;23.358;2023-07-31T10:10:25;90883.91;;;26.80;47.10
6395;BME280;3230;42.588;23.358;2023-07-31T10:12:52;90882.84;;;27.00;45.25
6395;BME280;3230;42.588;23.358;2023-07-31T10:15:18;90885.25;;;27.37;46.03
6395;BME280;3230;42.588;23.358;2023-07-31T10:17:46;90881.47;;;27.60;44.10
6395;BME280;3230;42.588;23.358;2023-07-31T10:20:12;90880.72;;;27.81;44.44
6395;BME280;3230;42.588;23.358;2023-07-31T10:22:38;90883.00;;;27.75;42.56
6395;BME280;3230;42.588;23.358;2023-07-31T10:25:04;90883.41;;;27.92;43.02
6395;BME280;3230;42.588;23.358;2023-07-31T10:27:35;90884.19;;;27.96;43.68
6395;BME280;3230;42.588;23.358;2023-07-31T10:30:00;90882.66;;;28.13;41.64
6395;BME280;3230;42.588;23.358;2023-07-31T10:32:29;90885.34;;;28.28;41.38
6395;BME280;3230;42.588;23.358;2023-07-31T10:34:55;90879.59;;;28.18;42.63
6395;BME280;3230;42.588;23.358;2023-07-31T10:39:56;90864.16;;;28.40;41.86
6395;BME280;3230;42.588;23.358;2023-07-31T10:42:37;90860.63;;;28.69;43.97
6395;BME280;3230;42.588;23.358;2023-07-31T10:45:06;90876.00;;;28.83;41.80
6395;BME280;3230;42.588;23.358;2023-07-31T10:47:46;90866.81;;;28.69;39.95
6395;BME280;3230;42.588;23.358;2023-07-31T10:52:37;90864.13;;;28.62;41.57
6395;BME280;3230;42.588;23.358;2023-07-31T10:55:39;90871.81;;;28.71;40.87
6395;BME280;3230;42.588;23.358;2023-07-31T10:58:12;90869.13;;;28.71;40.69
6395;BME280;3230;42.588;23.358;2023-07-31T11:00:40;90850.22;;;28.67;41.68
6395;BME280;3230;42.588;23.358;2023-07-31T11:05:45;90858.13;;;29.14;39.29
6395;BME280;3230;42.588;23.358;2023-07-31T11:10:36;90858.31;;;29.56;38.48
6395;BME280;3230;42.588;23.358;2023-07-31T11:13:04;90857.25;;;29.43;38.90
6395;BME280;3230;42.588;23.358;2023-07-31T11:15:29;90849.06;;;28.76;38.58
6395;BME280;3230;42.588;23.358;2023-07-31T11:17:55;90842.16;;;28.71;39.53
6395;BME280;3230;42.588;23.358;2023-07-31T11:20:24;90840.22;;;28.57;40.18
6395;BME280;3230;42.588;23.358;2023-07-31T11:22:49;90843.38;;;28.27;39.89
6395;BME280;3230;42.588;23.358;2023-07-31T11:25:16;90855.66;;;28.56;40.36
6395;BME280;3230;42.588;23.358;2023-07-31T11:27:42;90855.22;;;28.80;38.64
6395;BME280;3230;42.588;23.358;2023-07-31T11:30:09;90847.94;;;28.73;39.09
6395;BME280;3230;42.588;23.358;2023-07-31T11:32:37;90855.19;;;28.87;38.35
6395;BME280;3230;42.588;23.358;2023-07-31T11:35:03;90846.56;;;29.21;39.20
6395;BME280;3230;42.588;23.358;2023-07-31T11:37:43;90846.19;;;29.15;38.05
6395;BME280;3230;42.588;23.358;2023-07-31T11:40:09;90848.16;;;29.08;38.39
6395;BME280;3230;42.588;23.358;2023-07-31T11:42:35;90857.94;;;28.65;38.17
6395;BME280;3230;42.588;23.358;2023-07-31T11:45:05;90852.22;;;28.42;39.23
6395;BME280;3230;42.588;23.358;2023-07-31T11:47:36;90852.25;;;28.27;38.62
6395;BME280;3230;42.588;23.358;2023-07-31T11:50:03;90846.75;;;28.63;37.86
6395;BME280;3230;42.588;23.358;2023-07-31T11:52:32;90839.03;;;28.83;37.87
6395;BME280;3230;42.588;23.358;2023-07-31T11:54:59;90840.22;;;28.71;37.58
6395;BME280;3230;42.588;23.358;2023-07-31T11:57:25;90831.66;;;28.91;38.08
6395;BME280;3230;42.588;23.358;2023-07-31T11:59:51;90828.72;;;29.42;37.02
6395;BME280;3230;42.588;23.358;2023-07-31T12:02:17;90840.25;;;29.46;37.76
6395;BME280;3230;42.588;23.358;2023-07-31T12:04:43;90844.22;;;29.23;38.60
6395;BME280;3230;42.588;23.358;2023-07-31T12:07:08;90832.84;;;28.90;38.84
6395;BME280;3230;42.588;23.358;2023-07-31T12:09:34;90833.56;;;28.98;39.12
6395;BME280;3230;42.588;23.358;2023-07-31T12:11:59;90832.94;;;28.50;39.78
6395;BME280;3230;42.588;23.358;2023-07-31T12:14:27;90824.19;;;28.21;40.43
6395;BME280;3230;42.588;23.358;2023-07-31T12:16:57;90818.41;;;28.12;40.74
6395;BME280;3230;42.588;23.358;2023-07-31T12:19:25;90825.75;;;28.07;41.69
6395;BME280;3230;42.588;23.358;2023-07-31T12:21:53;90817.66;;;27.64;40.69
6395;BME280;3230;42.588;23.358;2023-07-31T12:24:19;90806.09;;;27.85;41.58
6395;BME280;3230;42.588;23.358;2023-07-31T12:26:45;90814.22;;;27.67;42.77
6395;BME280;3230;42.588;23.358;2023-07-31T12:29:14;90816.13;;;28.10;41.27
6395;BME280;3230;42.588;23.358;2023-07-31T12:31:41;90808.44;;;27.65;41.45
6395;BME280;3230;42.588;23.358;2023-07-31T12:34:18;90805.34;;;27.92;40.86
6395;BME280;3230;42.588;23.358;2023-07-31T12:36:44;90809.97;;;27.88;40.95
6395;BME280;3230;42.588;23.358;2023-07-31T12:39:10;90811.06;;;27.40;41.16
6395;BME280;3230;42.588;23.358;2023-07-31T12:41:35;90816.09;;;27.34;42.52
6395;BME280;3230;42.588;23.358;2023-07-31T12:44:01;90809.91;;;27.30;43.62
6395;BME280;3230;42.588;23.358;2023-07-31T12:46:28;90806.81;;;27.21;42.50
6395;BME280;3230;42.588;23.358;2023-07-31T12:48:53;90803.75;;;27.19;42.14
6395;BME280;3230;42.588;23.358;2023-07-31T12:51:19;90811.06;;;27.22;42.76
6395;BME280;3230;42.588;23.358;2023-07-31T12:53:44;90796.47;;;27.26;43.80
6395;BME280;3230;42.588;23.358;2023-07-31T12:56:10;90788.34;;;27.01;43.88
6395;BME280;3230;42.588;23.358;2023-07-31T12:58:35;90799.38;;;26.74;43.84
6395;BME280;3230;42.588;23.358;2023-07-31T13:01:00;90798.34;;;27.04;43.87
6395;BME280;3230;42.588;23.358;2023-07-31T13:03:27;90783.38;;;27.07;42.62
6395;BME280;3230;42.588;23.358;2023-07-31T13:05:52;90785.75;;;27.55;42.59
6395;BME280;3230;42.588;23.358;2023-07-31T13:08:18;90784.59;;;27.45;42.09
6395;BME280;3230;42.588;23.358;2023-07-31T13:10:43;90786.16;;;27.57;42.13
6395;BME280;3230;42.588;23.358;2023-07-31T13:13:09;90785.34;;;27.89;41.10
6395;BME280;3230;42.588;23.358;2023-07-31T13:15:35;90781.09;;;28.14;41.22
6395;BME280;3230;42.588;23.358;2023-07-31T13:18:01;90775.38;;;27.57;41.84
6395;BME280;3230;42.588;23.358;2023-07-31T13:20:26;90799.97;;;27.56;41.52
6395;BME280;3230;42.588;23.358;2023-07-31T13:22:52;90790.75;;;27.64;42.62
6395;BME280;3230;42.588;23.358;2023-07-31T13:25:17;90792.66;;;27.42;42.50
6395;BME280;3230;42.588;23.358;2023-07-31T13:27:42;90791.09;;;27.37;42.70
6395;BME280;3230;42.588;23.358;2023-07-31T13:30:08;90779.16;;;27.17;43.17
6395;BME280;3230;42.588;23.358;2023-07-31T13:32:34;90792.16;;;26.75;44.57
6395;BME280;3230;42.588;23.358;2023-07-31T13:35:06;90786.34;;;26.73;43.38